createdAt,value
2018-09-18T03:01:06.959Z,87.94
2018-09-18T03:02:07.497Z,88.60
2018-09-18T03:03:07.395Z,88.42
2018-09-18T03:04:07.321Z,88.79
2018-09-18T03:05:07.778Z,89.18
2018-09-18T03:06:08.065Z,88.89
2018-09-18T03:07:08.442Z,88.79
2018-09-18T03:08:07.860Z,89.08
2018-09-18T03:09:08.039Z,89.18
2018-09-18T03:10:08.782Z,89.65
2018-09-18T03:11:08.740Z,89.94
2018-09-18T03:12:08.014Z,91.46
2018-09-18T03:13:09.296Z,92.22
2018-09-18T03:14:07.577Z,92.22
2018-09-18T03:15:06.837Z,91.08
2018-09-18T03:16:06.987Z,89.75
2018-09-18T03:17:07.202Z,88.99
2018-09-18T03:18:07.256Z,88.51
2018-09-18T03:19:07.622Z,88.60
2018-09-18T03:20:07.607Z,88.23
2018-09-18T03:21:07.975Z,88.42
2018-09-18T03:22:07.984Z,87.75
2018-09-18T03:23:08.277Z,87.85
2018-09-18T03:24:08.411Z,87.94
2018-09-18T03:25:08.506Z,87.94
2018-09-18T03:26:08.933Z,88.60
2018-09-18T03:27:08.986Z,88.60
2018-09-18T03:28:09.098Z,88.99
2018-09-18T03:29:09.331Z,88.89
2018-09-18T03:30:09.457Z,89.56
2018-09-18T03:31:09.596Z,89.08
2018-09-18T03:32:09.711Z,89.37
2018-09-18T03:33:09.908Z,89.75
2018-09-18T03:34:09.972Z,89.32
2018-09-18T03:35:10.778Z,89.37
2018-09-18T03:36:10.440Z,90.13
2018-09-18T03:37:10.564Z,90.32
2018-09-18T03:38:10.820Z,90.51
2018-09-18T03:39:10.920Z,91.65
2018-09-18T03:40:11.081Z,91.65
2018-09-18T03:41:11.251Z,91.94
2018-09-18T03:42:11.351Z,91.37
2018-09-18T03:43:11.527Z,91.27
2018-09-18T03:44:11.829Z,90.99
2018-09-18T03:45:12.050Z,89.94
2018-09-18T03:46:12.238Z,89.37
2018-09-18T03:47:12.310Z,88.89
2018-09-18T03:48:12.418Z,88.51
2018-09-18T03:49:12.593Z,88.60
2018-09-18T03:50:12.697Z,88.42
2018-09-18T03:51:12.935Z,88.99
2018-09-18T03:52:13.172Z,88.94
2018-09-18T03:53:13.389Z,88.99
2018-09-18T03:54:13.465Z,89.56
2018-09-18T03:55:13.624Z,89.75
2018-09-18T03:56:13.965Z,89.32
2018-09-18T03:57:14.061Z,89.42
2018-09-18T03:58:14.288Z,89.65
2018-09-18T03:59:14.345Z,89.99
2018-09-18T04:00:14.510Z,90.51
2018-09-18T04:01:14.657Z,90.70
2018-09-18T04:02:14.832Z,91.27
2018-09-18T04:03:15.088Z,91.37
2018-09-18T04:04:15.350Z,90.89
2018-09-18T04:05:15.407Z,90.89
2018-09-18T04:06:15.680Z,90.89
2018-09-18T04:07:15.741Z,91.17
2018-09-18T04:08:15.893Z,91.65
2018-09-18T04:09:16.147Z,92.03
2018-09-18T04:10:16.188Z,91.94
2018-09-18T04:11:16.472Z,92.03
2018-09-18T04:12:16.632Z,91.46
2018-09-18T04:13:16.777Z,90.89
2018-09-18T04:14:16.916Z,91.27
2018-09-18T04:15:17.139Z,91.17
2018-09-18T04:16:17.308Z,90.03
2018-09-18T04:17:17.666Z,89.37
2018-09-18T04:18:17.722Z,89.08
2018-09-18T04:19:17.873Z,88.32
2018-09-18T04:20:18.211Z,88.13
2018-09-18T04:21:18.330Z,87.94
2018-09-18T04:22:18.479Z,88.51
2018-09-18T04:23:18.629Z,88.70
2018-09-18T04:24:18.805Z,88.60
2018-09-18T04:25:18.950Z,88.66
2018-09-18T04:26:19.011Z,88.79
2018-09-18T04:27:19.265Z,89.42
2018-09-18T04:28:19.541Z,89.70
2018-09-18T04:29:19.671Z,89.51
2018-09-18T04:30:19.811Z,90.28
2018-09-18T04:31:20.112Z,90.08
2018-09-18T04:32:20.115Z,90.28
2018-09-18T04:33:20.348Z,90.56
2018-09-18T04:34:20.534Z,90.37
2018-09-18T04:35:20.784Z,90.47
2018-09-18T04:36:20.798Z,90.28
2018-09-18T04:37:21.024Z,90.37
2018-09-18T04:38:21.176Z,90.28
2018-09-18T04:39:22.130Z,91.13
2018-09-18T04:40:21.602Z,91.03
2018-09-18T04:41:21.729Z,91.22
2018-09-18T04:42:21.989Z,91.13
2018-09-18T04:43:22.041Z,90.94
2018-09-18T04:44:22.330Z,91.13
2018-09-18T04:45:22.477Z,91.22
2018-09-18T04:46:22.609Z,90.84
2018-09-18T04:47:22.989Z,90.94
2018-09-18T04:48:23.021Z,90.47
2018-09-18T04:49:23.113Z,90.66
2018-09-18T04:50:23.202Z,90.66
2018-09-18T04:51:23.401Z,90.56
2018-09-18T04:52:23.477Z,90.84
2018-09-18T04:53:23.692Z,91.03
2018-09-18T04:54:23.870Z,91.51
2018-09-18T04:55:24.089Z,91.70
2018-09-18T04:56:25.191Z,91.80
2018-09-18T04:57:24.500Z,92.36
2018-09-18T04:58:24.583Z,92.65
2018-09-18T04:59:24.802Z,92.56
2018-09-18T05:00:24.924Z,93.23
2018-09-18T05:01:25.225Z,92.56
2018-09-18T05:02:25.312Z,92.36
2018-09-18T05:03:25.679Z,91.61
2018-09-18T05:04:25.611Z,90.56
2018-09-18T05:05:25.969Z,90.75
2018-09-18T05:06:25.912Z,90.47
2018-09-18T05:07:26.125Z,90.66
2018-09-18T05:08:26.306Z,91.42
2018-09-18T05:09:26.505Z,92.27
2018-09-18T05:10:27.093Z,93.94
2018-09-18T05:11:26.820Z,94.13
2018-09-18T05:12:26.969Z,93.84
2018-09-18T05:13:27.117Z,93.65
2018-09-18T05:14:27.254Z,93.37
2018-09-18T05:15:27.412Z,92.70
2018-09-18T05:16:27.599Z,91.75
2018-09-18T05:17:27.713Z,91.56
2018-09-18T05:18:27.888Z,91.32
2018-09-18T05:19:28.173Z,90.66
2018-09-18T05:20:29.092Z,89.89
2018-09-18T05:21:28.469Z,90.47
2018-09-18T05:22:28.819Z,90.47
2018-09-18T05:23:28.886Z,90.66
2018-09-18T05:24:28.978Z,90.94
2018-09-18T05:25:29.312Z,91.28
2018-09-18T05:26:29.599Z,91.37
2018-09-18T05:27:29.603Z,91.03
2018-09-18T05:28:30.118Z,91.03
2018-09-18T05:29:30.178Z,90.94
2018-09-18T05:30:30.262Z,91.75
2018-09-18T05:31:30.520Z,91.85
2018-09-18T05:32:31.007Z,91.94
2018-09-18T05:35:52.941Z,91.99
2018-09-18T05:36:53.319Z,92.03
2018-09-18T05:37:53.994Z,91.99
2018-09-18T05:38:53.282Z,91.66
2018-09-18T05:39:53.924Z,91.70
2018-09-18T05:40:54.211Z,91.61
2018-09-18T05:41:53.777Z,92.27
2018-09-18T05:42:53.134Z,91.99
2018-09-18T05:43:51.640Z,92.36
2018-09-18T05:44:51.891Z,92.75
2018-09-18T05:45:52.045Z,93.23
2018-09-18T05:46:52.148Z,92.84
2018-09-18T05:47:52.365Z,92.65
2018-09-18T05:48:52.744Z,94.08
2018-09-18T05:49:53.100Z,95.03
2018-09-18T05:50:53.110Z,94.08
2018-09-18T05:52:03.860Z,92.75
2018-09-18T05:52:55.396Z,91.99
2018-09-18T05:53:56.357Z,91.61
2018-09-18T05:54:56.160Z,91.65
2018-09-18T05:56:56.740Z,91.56
2018-09-18T05:57:54.185Z,92.32
2018-09-18T05:58:54.378Z,92.32
2018-09-18T05:59:54.516Z,92.70
2018-09-18T06:00:58.304Z,93.27
2018-09-18T06:01:54.951Z,94.03
2018-09-18T06:02:55.565Z,93.65
2018-09-18T06:03:57.477Z,93.55
2018-09-18T06:04:58.471Z,92.99
2018-09-18T06:06:58.926Z,91.75
2018-09-18T06:07:55.921Z,92.22
2018-09-18T06:08:56.055Z,92.03
2018-09-18T06:09:56.064Z,92.13
2018-09-18T06:10:56.290Z,91.94
2018-09-18T06:11:56.469Z,92.22
2018-09-18T06:12:56.658Z,92.03
2018-09-18T06:13:56.795Z,92.03
2018-09-18T06:14:57.003Z,92.41
2018-09-18T06:15:57.197Z,91.99
2018-09-18T06:16:57.388Z,92.55
2018-09-18T06:17:57.474Z,93.03
2018-09-18T06:18:57.471Z,92.55
2018-09-18T06:19:57.798Z,92.74
2018-09-18T06:20:57.849Z,91.99
2018-09-18T06:21:57.960Z,92.18
2018-09-18T06:22:58.157Z,91.41
2018-09-18T06:23:58.381Z,91.51
2018-09-18T06:24:58.627Z,91.74
2018-09-18T06:25:58.790Z,91.17
2018-09-18T06:26:59.059Z,91.55
2018-09-18T06:27:59.202Z,90.41
2018-09-18T06:28:59.345Z,90.79
2018-09-18T06:29:59.560Z,90.31
2018-09-18T06:30:59.680Z,89.65
2018-09-18T06:31:59.897Z,89.65
2018-09-18T06:33:00.074Z,89.94
2018-09-18T06:34:00.076Z,89.55
2018-09-18T06:35:00.292Z,89.75
2018-09-18T06:36:00.415Z,89.79
2018-09-18T06:37:00.663Z,89.89
2018-09-18T06:38:00.842Z,89.50
2018-09-18T06:39:01.123Z,89.50
2018-09-18T06:40:01.271Z,89.60
2018-09-18T06:41:01.640Z,89.60
2018-09-18T06:42:01.632Z,88.64
2018-09-18T06:43:02.026Z,88.45
2018-09-18T06:44:02.286Z,88.59
2018-09-18T06:45:02.723Z,88.69
2018-09-18T06:47:45.746Z,88.40
2018-09-18T06:48:45.771Z,87.74
2018-09-18T06:49:46.252Z,87.93
2018-09-18T06:50:48.094Z,87.74
2018-09-18T06:51:48.306Z,87.59
2018-09-18T06:53:16.187Z,87.59
2018-09-18T06:55:01.133Z,86.44
2018-09-18T06:55:48.349Z,86.54
2018-09-18T06:59:50.312Z,85.34
2018-09-18T07:00:47.258Z,85.05
2018-09-18T07:04:32.061Z,83.80
2018-09-18T07:05:34.348Z,82.46
2018-09-18T07:08:31.109Z,80.02
2018-09-18T07:09:32.591Z,80.21
2018-09-18T07:10:31.020Z,80.11
2018-09-18T07:12:39.959Z,79.93
2018-09-18T07:13:54.097Z,80.30
2018-09-18T07:14:36.640Z,80.11
2018-09-18T07:15:39.422Z,79.64
2018-09-18T07:17:32.031Z,79.54
2018-09-18T07:18:32.371Z,79.39
2018-09-18T07:20:30.753Z,79.39
2018-09-18T07:21:31.723Z,79.96
2018-09-18T07:22:31.856Z,79.29
2018-09-18T07:23:32.027Z,80.06
2018-09-18T07:24:29.934Z,79.68
2018-09-18T07:25:30.677Z,79.33
2018-09-18T07:26:30.765Z,79.05
2018-09-18T07:27:30.520Z,77.99
2018-09-18T07:28:30.441Z,77.70
2018-09-18T07:29:31.026Z,77.33
2018-09-18T07:32:15.280Z,77.94
2018-09-18T07:32:37.596Z,77.84
2018-09-18T07:33:36.143Z,77.65
2018-09-18T07:38:01.577Z,75.87
2018-09-18T07:39:33.634Z,75.01
2018-09-18T07:42:00.595Z,74.82
2018-09-18T07:43:02.139Z,73.70
2018-09-18T07:45:20.272Z,72.84
2018-09-18T07:46:01.002Z,72.74
2018-09-18T07:47:20.559Z,72.59
2018-09-18T07:48:06.068Z,72.20
2018-09-18T07:49:27.211Z,72.30
2018-09-18T07:50:03.835Z,72.01
2018-09-18T07:51:06.199Z,71.72
2018-09-18T07:52:01.813Z,72.01
2018-09-18T07:53:01.697Z,71.95
2018-09-18T07:54:02.349Z,72.05
2018-09-18T07:55:05.838Z,71.09
2018-09-18T07:56:01.996Z,71.61
2018-09-18T07:56:59.518Z,70.36
2018-09-18T07:57:59.893Z,69.87
2018-09-18T07:58:59.806Z,68.73
2018-09-18T07:59:59.746Z,69.05
2018-09-18T08:01:00.059Z,68.47
2018-09-18T08:02:18.737Z,68.47
2018-09-18T08:03:02.855Z,68.18
2018-09-18T08:04:02.615Z,67.51
2018-09-18T08:05:02.739Z,66.97
2018-09-18T08:06:04.116Z,65.62
2018-09-18T08:07:02.778Z,66.68
2018-09-18T08:08:01.901Z,66.39
2018-09-18T08:09:01.086Z,65.37
2018-09-18T08:10:01.291Z,64.89
2018-09-18T08:11:01.525Z,64.69
2018-09-18T08:12:02.031Z,64.02
2018-09-18T08:13:01.741Z,65.01
2018-09-18T08:14:02.337Z,64.15
2018-09-18T08:15:02.181Z,63.95
2018-09-18T08:16:02.219Z,63.28
2018-09-18T08:17:02.315Z,63.31
2018-09-18T08:18:02.671Z,62.16
2018-09-18T08:19:02.907Z,62.26
2018-09-18T08:20:02.914Z,60.42
2018-09-18T08:21:03.051Z,60.24
2018-09-18T08:22:03.312Z,60.65
2018-09-18T08:23:03.459Z,60.27
2018-09-18T08:24:03.679Z,59.59
2018-09-18T08:25:03.955Z,59.33
2018-09-18T08:26:03.963Z,60.20
2018-09-18T08:27:04.283Z,59.33
2018-09-18T08:28:04.894Z,59.43
2018-09-18T08:29:04.992Z,59.43
2018-09-18T08:30:05.094Z,58.97
2018-09-18T08:31:04.890Z,58.30
2018-09-18T08:32:05.079Z,57.62
2018-09-18T08:33:05.491Z,56.47
2018-09-18T08:34:05.604Z,56.88
2018-09-18T08:35:05.576Z,56.21
2018-09-18T08:36:06.030Z,55.54
2018-09-18T08:37:06.030Z,55.34
2018-09-18T08:38:06.235Z,54.88
2018-09-18T08:39:06.450Z,55.36
2018-09-18T08:40:06.520Z,54.50
2018-09-18T08:41:06.721Z,54.11
2018-09-18T08:42:06.854Z,54.40
2018-09-18T08:43:06.999Z,54.05
2018-09-18T08:44:07.284Z,54.14
2018-09-18T08:45:07.489Z,54.53
2018-09-18T08:46:07.720Z,53.95
2018-09-18T08:47:08.102Z,53.97
2018-09-18T08:48:08.460Z,54.07
2018-09-18T08:49:08.208Z,52.53
2018-09-18T08:50:08.535Z,52.33
2018-09-18T08:51:08.588Z,52.43
2018-09-18T08:52:08.841Z,52.94
2018-09-18T08:53:09.393Z,52.84
2018-09-18T08:54:10.058Z,51.59
2018-09-18T08:55:09.966Z,51.97
2018-09-18T08:56:09.612Z,52.36
2018-09-18T08:57:09.855Z,51.87
2018-09-18T08:58:10.388Z,51.01
2018-09-18T08:59:10.806Z,50.62
2018-09-18T09:00:10.025Z,50.33
2018-09-18T09:01:10.272Z,50.45
2018-09-18T09:02:10.522Z,51.32
2018-09-18T09:03:10.823Z,51.23
2018-09-18T09:04:10.822Z,49.80
2018-09-18T09:05:11.050Z,49.99
2018-09-18T09:06:11.362Z,49.82
2018-09-18T09:07:11.475Z,49.24
2018-09-18T09:08:11.768Z,49.73
2018-09-18T09:09:11.859Z,49.37
2018-09-18T09:10:12.078Z,48.79
2018-09-18T09:11:12.150Z,48.11
2018-09-18T09:12:12.355Z,48.22
2018-09-18T09:13:12.523Z,47.26
2018-09-18T09:14:12.477Z,46.31
2018-09-18T09:15:12.811Z,46.22
2018-09-18T09:16:13.290Z,45.95
2018-09-18T09:17:13.046Z,46.04
2018-09-18T09:18:13.507Z,45.78
2018-09-18T09:19:13.535Z,45.02
2018-09-18T09:20:13.723Z,44.83
2018-09-18T09:21:14.038Z,42.81
2018-09-18T09:22:14.066Z,42.91
2018-09-18T09:23:14.278Z,43.02
2018-09-18T09:24:14.265Z,42.58
2018-09-18T09:25:14.471Z,41.44
2018-09-18T09:26:14.840Z,40.70
2018-09-18T09:27:14.983Z,39.94
2018-09-18T09:28:15.064Z,38.10
2018-09-18T09:29:15.284Z,37.35
2018-09-18T09:30:15.440Z,36.98
2018-09-18T09:31:15.741Z,36.58
2018-09-18T09:32:15.841Z,36.51
2018-09-18T09:33:16.100Z,34.94
2018-09-18T09:34:16.334Z,35.46
2018-09-18T09:35:16.762Z,33.90
2018-09-18T09:36:16.533Z,34.11
2018-09-18T09:37:16.723Z,33.46
2018-09-18T09:38:16.858Z,33.75
2018-09-18T09:39:17.473Z,32.60
2018-09-18T09:40:17.363Z,31.62
2018-09-18T09:41:17.228Z,31.81
2018-09-18T09:42:17.954Z,30.93
2018-09-18T09:43:17.781Z,30.44
2018-09-18T09:44:18.464Z,30.85
2018-09-18T09:45:18.851Z,30.87
2018-09-18T09:46:19.045Z,29.98
2018-09-18T09:47:19.314Z,29.59
2018-09-18T09:48:22.350Z,29.69
2018-09-18T09:49:20.280Z,29.90
2018-09-18T09:50:19.645Z,29.90
2018-09-18T09:51:19.772Z,30.01
2018-09-18T09:52:19.841Z,29.24
2018-09-18T09:53:20.728Z,28.06
2018-09-18T09:54:20.681Z,28.77
2018-09-18T09:55:20.442Z,27.67
2018-09-18T09:56:20.694Z,28.47
2018-09-18T09:57:36.860Z,27.98
2018-09-18T09:58:26.327Z,27.80
2018-09-18T09:59:25.273Z,27.42
2018-09-18T10:00:32.144Z,27.32
2018-09-18T10:01:25.526Z,27.51
2018-09-18T10:02:25.713Z,26.93
2018-09-18T10:03:26.971Z,27.53
2018-09-18T10:05:23.447Z,27.14
2018-09-18T10:06:22.825Z,26.75
2018-09-18T10:07:22.851Z,26.46
2018-09-18T10:08:22.570Z,26.18
2018-09-18T10:09:22.950Z,26.47
2018-09-18T10:10:23.034Z,26.48
2018-09-18T10:11:23.148Z,25.90
2018-09-18T10:12:23.363Z,25.51
2018-09-18T10:13:23.406Z,25.81
2018-09-18T10:14:23.760Z,25.89
2018-09-18T10:15:23.842Z,25.60
2018-09-18T10:16:24.122Z,25.59
2018-09-18T10:17:24.282Z,26.48
2018-09-18T10:18:24.382Z,26.29
2018-09-18T10:19:24.560Z,25.31
2018-09-18T10:20:24.947Z,25.21
2018-09-18T10:21:25.653Z,26.09
2018-09-18T10:22:25.241Z,25.22
2018-09-18T10:23:25.349Z,24.54
2018-09-18T10:24:25.607Z,24.27
2018-09-18T10:25:25.673Z,23.88
2018-09-18T10:26:25.924Z,23.29
2018-09-18T10:27:26.405Z,23.87
2018-09-18T10:28:26.243Z,24.07
2018-09-18T10:29:26.320Z,24.77
2018-09-18T10:30:26.648Z,23.88
2018-09-18T10:31:26.837Z,23.58
2018-09-18T10:32:26.927Z,24.28
2018-09-18T10:33:27.118Z,23.70
2018-09-18T10:34:27.400Z,23.11
2018-09-18T10:35:27.655Z,23.11
2018-09-18T10:36:28.482Z,23.11
2018-09-18T10:37:27.897Z,23.02
2018-09-18T10:38:27.913Z,23.52
2018-09-18T10:39:28.106Z,23.13
2018-09-18T10:40:28.332Z,23.43
2018-09-18T10:41:28.468Z,23.13
2018-09-18T10:42:28.654Z,23.41
2018-09-18T10:43:28.931Z,23.69
2018-09-18T10:44:28.941Z,24.09
2018-09-18T10:45:29.207Z,23.60
2018-09-18T10:46:29.464Z,23.32
2018-09-18T10:47:29.655Z,22.53
2018-09-18T10:48:29.717Z,23.13
2018-09-18T10:49:29.928Z,22.63
2018-09-18T10:50:30.228Z,22.24
2018-09-18T10:51:30.343Z,22.44
2018-09-18T10:52:30.506Z,22.25
2018-09-18T10:53:30.731Z,22.25
2018-09-18T10:54:30.985Z,22.25
2018-09-18T10:55:31.100Z,22.55
2018-09-18T10:56:31.209Z,22.67
2018-09-18T10:57:31.534Z,22.56
2018-09-18T10:58:31.625Z,21.88
2018-09-18T10:59:31.889Z,22.07
2018-09-18T11:00:32.066Z,22.37
2018-09-18T11:01:32.264Z,22.08
2018-09-18T11:02:32.351Z,21.78
2018-09-18T11:03:32.495Z,21.60
2018-09-18T11:04:32.824Z,21.51
2018-09-18T11:05:32.961Z,20.72
2018-09-18T11:06:33.181Z,21.12
2018-09-18T11:07:34.540Z,20.63
2018-09-18T11:08:33.653Z,20.92
2018-09-18T11:09:33.757Z,20.90
2018-09-18T11:10:33.925Z,21.41
2018-09-18T11:11:34.043Z,21.30
2018-09-18T11:12:34.356Z,21.86
2018-09-18T11:13:34.512Z,22.56
2018-09-18T11:14:34.570Z,21.97
2018-09-18T11:15:34.758Z,21.59
2018-09-18T11:16:35.026Z,21.59
2018-09-18T11:17:35.146Z,22.26
2018-09-18T11:18:35.330Z,22.38
2018-09-18T11:19:35.701Z,21.51
2018-09-18T11:20:35.780Z,21.42
2018-09-18T11:21:36.080Z,20.54
2018-09-18T11:22:40.798Z,19.84
2018-09-18T11:23:36.268Z,20.24
2018-09-18T11:24:36.483Z,20.14
2018-09-18T11:25:36.640Z,20.45
2018-09-18T11:26:36.769Z,19.76
2018-09-18T11:27:37.039Z,19.37
2018-09-18T11:28:37.231Z,18.98
2018-09-18T11:29:37.456Z,18.80
2018-09-18T11:30:37.698Z,18.60
2018-09-18T11:31:37.778Z,18.59
2018-09-18T11:32:38.070Z,18.69
2018-09-18T11:33:38.125Z,19.27
2018-09-18T11:34:38.333Z,19.76
2018-09-18T11:35:38.558Z,19.93
2018-09-18T11:36:38.701Z,20.33
2018-09-18T11:37:38.956Z,20.34
2018-09-18T11:38:39.043Z,20.63
2018-09-18T11:39:39.283Z,20.24
2018-09-18T11:40:39.393Z,20.04
2018-09-18T11:41:39.614Z,19.94
2018-09-18T11:42:39.933Z,20.64
2018-09-18T11:43:40.124Z,20.33
2018-09-18T11:44:40.276Z,20.14
2018-09-18T11:45:40.528Z,19.65
2018-09-18T11:46:40.747Z,19.67
2018-09-18T11:47:40.856Z,18.98
2018-09-18T11:48:40.974Z,19.57
2018-09-18T11:49:41.386Z,18.50
2018-09-18T11:50:41.422Z,18.97
2018-09-18T11:51:41.625Z,19.27
2018-09-18T11:52:41.734Z,18.79
2018-09-18T11:53:42.073Z,18.99
2018-09-18T11:54:42.217Z,18.60
2018-09-18T11:55:42.348Z,18.88
2018-09-18T11:56:42.662Z,19.57
2018-09-18T11:57:42.676Z,18.79
2018-09-18T11:58:42.925Z,18.80
2018-09-18T11:59:43.138Z,18.98
2018-09-18T12:00:43.279Z,18.87
2018-09-18T12:01:43.545Z,18.86
2018-09-18T12:02:43.656Z,19.45
2018-09-18T12:03:43.844Z,20.05
2018-09-18T12:04:44.217Z,19.75
2018-09-18T12:05:44.147Z,19.06
2018-09-18T12:06:44.379Z,19.46
2018-09-18T12:07:44.540Z,18.98
2018-09-18T12:08:44.814Z,19.08
2018-09-18T12:09:45.026Z,18.77
2018-09-18T12:10:45.039Z,18.77
2018-09-18T12:11:45.301Z,18.88
2018-09-18T12:12:45.439Z,18.29
2018-09-18T12:13:45.749Z,18.20
2018-09-18T12:14:45.930Z,18.00
2018-09-18T12:15:46.117Z,17.99
2018-09-18T12:16:46.388Z,17.97
2018-09-18T12:17:46.504Z,18.85
2018-09-18T12:18:46.768Z,19.46
2018-09-18T12:19:47.031Z,18.57
2018-09-18T12:20:47.112Z,18.97
2018-09-18T12:21:47.431Z,18.97
2018-09-18T12:22:47.649Z,18.67
2018-09-18T12:23:47.650Z,18.67
2018-09-18T12:24:47.797Z,18.75
2018-09-18T12:25:48.165Z,17.97
2018-09-18T12:26:48.210Z,18.37
2018-09-18T12:27:48.463Z,18.47
2018-09-18T12:28:48.749Z,18.67
2018-09-18T12:29:48.853Z,19.15
2018-09-18T12:30:49.096Z,19.56
2018-09-18T12:31:49.353Z,17.77
2018-09-18T12:32:49.491Z,18.27
2018-09-18T12:33:49.581Z,17.49
2018-09-18T12:34:50.009Z,18.28
2018-09-18T12:35:50.844Z,17.79
2018-09-18T12:36:50.268Z,18.18
2018-09-18T12:37:50.317Z,18.19
2018-09-18T12:38:50.975Z,17.69
2018-09-18T12:39:50.964Z,17.97
2018-09-18T12:40:50.965Z,17.39
2018-09-18T12:41:51.318Z,17.49
2018-09-18T12:42:51.344Z,17.69
2018-09-18T12:43:51.633Z,17.90
2018-09-18T12:44:51.815Z,17.69
2018-09-18T12:45:52.009Z,17.60
2018-09-18T12:46:51.995Z,16.80
2018-09-18T12:47:52.217Z,17.18
2018-09-18T12:48:52.429Z,17.48
2018-09-18T12:49:52.933Z,17.98
2018-09-18T12:50:52.798Z,18.09
2018-09-18T12:51:52.980Z,17.21
2018-09-18T12:52:53.137Z,17.11
2018-09-18T12:53:53.439Z,17.90
2018-09-18T12:54:53.503Z,16.91
2018-09-18T12:55:53.733Z,16.72
2018-09-18T12:56:54.066Z,16.82
2018-09-18T12:57:54.258Z,17.20
2018-09-18T12:58:54.301Z,17.39
2018-09-18T12:59:54.647Z,17.88
2018-09-18T13:00:54.664Z,18.18
2018-09-18T13:01:54.942Z,18.09
2018-09-18T13:02:55.510Z,17.98
2018-09-18T13:03:55.383Z,18.28
2018-09-18T13:05:55.565Z,18.07
2018-09-18T13:06:55.846Z,18.57
2018-09-18T13:07:56.160Z,18.37
2018-09-18T13:08:56.301Z,18.09
2018-09-18T13:09:56.508Z,18.09
2018-09-18T13:10:56.625Z,17.70
2018-09-18T13:11:57.013Z,17.40
2018-09-18T13:12:57.079Z,17.40
2018-09-18T13:13:57.296Z,17.02
2018-09-18T13:14:57.401Z,16.90
2018-09-18T13:15:57.606Z,17.69
2018-09-18T13:16:57.848Z,17.49
2018-09-18T13:17:57.941Z,16.91
2018-09-18T13:18:58.254Z,16.52
2018-09-18T13:19:58.542Z,16.31
2018-09-18T13:20:58.584Z,16.54
2018-09-18T13:21:58.827Z,15.94
2018-09-18T13:22:58.974Z,16.44
2018-09-18T13:23:59.148Z,16.36
2018-09-18T13:24:59.344Z,16.36
2018-09-18T13:25:59.486Z,16.15
2018-09-18T13:26:59.771Z,16.52
2018-09-18T13:28:00.076Z,17.23
2018-09-18T13:29:00.224Z,16.83
2018-09-18T13:30:00.335Z,16.52
2018-09-18T13:31:00.627Z,17.42
2018-09-18T13:32:00.609Z,17.21
2018-09-18T13:33:00.837Z,17.49
2018-09-18T13:34:00.953Z,17.79
2018-09-18T13:35:01.317Z,17.99
2018-09-18T13:36:01.491Z,17.69
2018-09-18T13:37:01.760Z,17.49
2018-09-18T13:38:01.877Z,18.19
2018-09-18T13:39:02.167Z,17.70
2018-09-18T13:40:02.264Z,17.60
2018-09-18T13:41:02.538Z,18.00
2018-09-18T13:42:02.677Z,17.42
2018-09-18T13:43:02.874Z,16.82
2018-09-18T13:44:02.906Z,16.61
2018-09-18T13:45:03.252Z,17.49
2018-09-18T13:46:03.403Z,16.91
2018-09-18T13:47:03.603Z,17.39
2018-09-18T13:48:03.846Z,16.90
2018-09-18T13:49:04.234Z,17.80
2018-09-18T13:50:04.163Z,17.40
2018-09-18T13:51:04.454Z,17.10
2018-09-18T13:52:04.551Z,17.50
2018-09-18T13:53:04.824Z,17.40
2018-09-18T13:54:04.918Z,17.02
2018-09-18T13:55:05.214Z,16.91
2018-09-18T13:56:05.291Z,18.08
2018-09-18T13:57:05.545Z,17.58
2018-09-18T13:58:05.661Z,18.07
2018-09-18T13:59:05.919Z,17.39
2018-09-18T14:00:06.137Z,17.69
2018-09-18T14:01:06.299Z,17.98
2018-09-18T14:02:06.472Z,17.69
2018-09-18T14:03:06.656Z,17.88
2018-09-18T14:04:06.984Z,17.79
2018-09-18T14:05:08.078Z,18.26
2018-09-18T14:06:07.256Z,18.37
2018-09-18T14:07:07.485Z,18.08
2018-09-18T14:08:07.541Z,18.18
2018-09-18T14:09:07.759Z,17.97
2018-09-18T14:10:07.985Z,18.26
2018-09-18T14:11:08.202Z,18.66
2018-09-18T14:12:08.362Z,18.45
2018-09-18T14:13:08.643Z,18.55
2018-09-18T14:14:08.743Z,18.56
2018-09-18T14:15:08.949Z,18.08
2018-09-18T14:16:09.108Z,18.08
2018-09-18T14:17:09.367Z,17.49
2018-09-18T14:18:09.562Z,17.90
2018-09-18T14:19:09.635Z,18.00
2018-09-18T14:20:09.922Z,17.40
2018-09-18T14:21:10.123Z,17.49
2018-09-18T14:22:10.279Z,18.27
2018-09-18T14:23:10.481Z,18.54
2018-09-18T14:24:10.759Z,18.75
2018-09-18T14:25:11.438Z,18.96
2018-09-18T14:26:11.036Z,18.16
2018-09-18T14:27:11.222Z,18.07
2018-09-18T14:28:11.443Z,17.58
2018-09-18T14:29:11.635Z,17.98
2018-09-18T14:30:11.764Z,18.18
2018-09-18T14:31:11.959Z,17.79
2018-09-18T14:32:12.131Z,17.50
2018-09-18T14:33:12.327Z,16.82
2018-09-18T14:34:12.494Z,16.72
2018-09-18T14:35:12.755Z,16.43
2018-09-18T14:36:12.936Z,16.43
2018-09-18T14:37:13.025Z,16.42
2018-09-18T14:38:13.505Z,16.63
2018-09-18T14:39:13.461Z,17.11
2018-09-18T14:40:13.802Z,17.30
2018-09-18T14:41:13.917Z,17.60
2018-09-18T14:42:14.097Z,16.70
2018-09-18T14:43:14.189Z,16.50
2018-09-18T14:44:14.527Z,17.19
2018-09-18T14:45:14.756Z,17.38
2018-09-18T14:46:14.943Z,18.15
2018-09-18T14:47:15.144Z,19.60
2018-09-18T14:48:15.263Z,20.15
2018-09-18T14:49:15.412Z,21.71
2018-09-18T14:50:15.651Z,22.47
2018-09-18T14:51:15.888Z,23.24
2018-09-18T14:52:16.057Z,23.52
2018-09-18T14:53:16.219Z,24.69
2018-09-18T14:54:16.422Z,24.29
2018-09-18T14:55:16.638Z,24.38
2018-09-18T14:56:16.824Z,24.47
2018-09-18T14:57:16.899Z,25.04
2018-09-18T14:58:17.109Z,25.13
2018-09-18T14:59:17.420Z,25.62
2018-09-18T15:00:17.580Z,26.01
2018-09-18T15:01:17.755Z,25.92
2018-09-18T15:02:17.945Z,25.82
2018-09-18T15:03:17.999Z,25.73
2018-09-18T15:04:18.221Z,25.62
2018-09-18T15:05:18.503Z,25.72
2018-09-18T15:06:18.627Z,25.90
2018-09-18T15:07:18.783Z,26.31
2018-09-18T15:08:18.909Z,25.83
2018-09-18T15:09:19.162Z,26.14
2018-09-18T15:10:19.349Z,25.08
2018-09-18T15:11:19.494Z,24.32
2018-09-18T15:12:19.678Z,23.65
2018-09-18T15:13:19.771Z,23.37
2018-09-18T15:14:20.047Z,22.30
2018-09-18T15:15:20.195Z,22.97
2018-09-18T15:16:20.361Z,22.88
2018-09-18T15:17:20.573Z,23.35
2018-09-18T15:18:20.643Z,23.33
2018-09-18T15:19:20.963Z,24.60
2018-09-18T15:20:21.181Z,24.80
2018-09-18T15:21:21.330Z,24.30
2018-09-18T15:22:21.491Z,24.59
2018-09-18T15:23:21.681Z,25.94
2018-09-18T15:24:21.877Z,26.12
2018-09-18T15:25:22.020Z,26.61
2018-09-18T15:26:22.225Z,26.61
2018-09-18T15:27:22.438Z,27.28
2018-09-18T15:28:22.546Z,27.66
2018-09-18T15:29:22.703Z,28.34
2018-09-18T15:30:22.939Z,28.41
2018-09-18T15:31:23.071Z,29.00
2018-09-18T15:32:23.287Z,29.28
2018-09-18T15:33:23.506Z,29.77
2018-09-18T15:34:23.544Z,29.97
2018-09-18T15:35:23.814Z,29.85
2018-09-18T15:36:24.000Z,29.45
2018-09-18T15:37:24.139Z,30.25
2018-09-18T15:38:24.338Z,30.04
2018-09-18T15:39:24.489Z,30.23
2018-09-18T15:40:24.650Z,30.62
2018-09-18T15:41:24.900Z,30.91
2018-09-18T15:42:25.110Z,31.01
2018-09-18T15:43:25.291Z,31.21
2018-09-18T15:44:25.444Z,30.62
2018-09-18T15:45:25.578Z,31.31
2018-09-18T15:46:25.900Z,30.71
2018-09-18T15:47:26.040Z,30.91
2018-09-18T15:48:26.223Z,30.80
2018-09-18T15:49:26.391Z,31.10
2018-09-18T15:50:26.519Z,31.51
2018-09-18T15:51:26.745Z,31.41
2018-09-18T15:52:27.090Z,31.59
2018-09-18T15:53:27.332Z,31.60
2018-09-18T15:54:27.213Z,32.17
2018-09-18T15:55:27.355Z,31.78
2018-09-18T15:56:27.674Z,31.57
2018-09-18T15:57:27.840Z,31.77
2018-09-18T15:58:27.924Z,32.34
2018-09-18T15:59:28.201Z,32.24
2018-09-18T16:00:28.384Z,32.43
2018-09-18T16:01:28.549Z,32.82
2018-09-18T16:02:28.708Z,33.41
2018-09-18T16:03:28.830Z,33.61
2018-09-18T16:04:29.003Z,33.80
2018-09-18T16:05:29.159Z,33.62
2018-09-18T16:06:29.290Z,32.73
2018-09-18T16:07:29.577Z,32.53
2018-09-18T16:08:29.708Z,32.43
2018-09-18T16:09:29.859Z,32.53
2018-09-18T16:10:30.110Z,32.53
2018-09-18T16:11:30.334Z,33.41
2018-09-18T16:12:30.485Z,34.29
2018-09-18T16:13:30.557Z,34.00
2018-09-18T16:14:30.840Z,33.61
2018-09-18T16:15:31.087Z,33.59
2018-09-18T16:16:31.213Z,33.59
2018-09-18T16:17:31.299Z,33.59
2018-09-18T16:18:31.557Z,33.30
2018-09-18T16:19:31.636Z,33.79
2018-09-18T16:20:31.787Z,33.67
2018-09-18T16:21:32.065Z,33.77
2018-09-18T16:22:32.211Z,34.06